Share

Beatrice, NE

7:21 AM CDT on April 23, 2014 (GMT -0500)
Beatrice Municipal (KBIE) Elev 1322 ft | 40.30 °N, 96.75 °W | Change Station
Active Advisory: Wind Advisory

Current weather conditions updated 26 minutes ago

Light Rain
Light Rain
52 °F
Feels Like 52 °F
N
15
Wind Variable Wind from SE
Gusts 22 mph
Sunrise 6:37 AM
Sunset 8:14 PM
Moon Last Quarter

Today is forecast to be Warmer than yesterday. Windy with morning showers.

Pressure 29.89 in
Visibility 10.0 miles
Clouds Scattered Clouds 5000 ft
Scattered Clouds 7000 ft
Overcast 10000 ft
Dew Point 40 °F
Humidity 63%
Rainfall 0.00 in
Snow Depth Not available.
UV 0 out of 16
Pollen 11.20 out of 12
Air Quality Not available.
Flu Activity Sporadic
METAR KBIE 231155Z AUTO 14013G19KT 10SM -RA SCT050 SCT070 OVC100 11/05 A2989 RMK AO2 T01130045 10151 20113 402250036

More Conditions Fewer Conditions

Pressure 29.89 in
Visibility 10.0 miles
Clouds Scattered Clouds 5000 ft
Scattered Clouds 7000 ft
Overcast 10000 ft
Dew Point 40 °F
Humidity 63%
Rainfall 0.00 in
Snow Depth Not available.
UV 0 out of 16
Pollen 11.20 out of 12
Air Quality Not available.
Flu Activity Sporadic
METAR KBIE 231155Z AUTO 14013G19KT 10SM -RA SCT050 SCT070 OVC100 11/05 A2989 RMK AO2 T01130045 10151 20113 402250036

More Conditions Fewer Conditions

10-Day Weather Forecast

Almanac

Astronomy

Apr. 23, 2014 Rise Set
Actual Time 6:37 AM CDT 8:14 PM CDT
Civil Twilight 6:08 AM CDT 8:42 PM CDT
Nautical Twilight 5:33 AM CDT 9:17 PM CDT
Astronomical Twilight 4:56 AM CDT 9:54 PM CDT
Moon 3:10 AM CDT 2:23 PM CDT
Length of Visible Light 14h 34m
Length of Day
13h 37m
Tomorrow will be 2m 25s longer.
Last Quarter, 37% of the Moon is Illuminated
Today
Last Quarter
Apr 29
New
May 6
First Quarter
May 14
Full
May 21
Last Quarter

Today's Extremes

State Highs State Lows

Community

  • April Sunset
    April Sunset
  • Waiting..
    Waiting..
  • Sunset...
    Sunset...
  • Happy outdoor day
    Happy outdoor day
  • mystic afternoon....
    mystic afternoon....

WunderPhotos

Upload Photos

1,704,256 photos uploaded!

Nearby

Snow Depth

Station Depth Elevation
No new snow has been reported.

Coastal Water Temperatures

Place Temperature
No Stations Reporting

Earthquake Activity

City Distance Mag. Time & Date
No recent earthquake activity has been reported nearby.
Minimum magnitude displayed is 2.5.

Nearby Weather Stations

Station Location Temp. Dew Point Humidity Wind Precip. Elev Updated Type
2 Miles East of Plymouth, Plymouth, NE 50.6 °F 42 °F 73% SE  at  18.0 mph 0.00 in / hr 1394 ft 7:21 AM CDT Normal
MesoWest STEEL1 , Steele City, NE 52 °F - - North  at  - 0.00 in / hr 1275 ft 6:00 AM CDT MADIS

Show More Stations Show Fewer Stations

What do you think?

We're not finished. Please let us know what you like, what you don't like, and what you are still missing.